Flight Track Log - Related Links

Times and Time Zones

All times are in EDT time to prevent confusion due to time zone crossing. See the N111SX flight status page for this flight to view local times or setup timezone preferences in your user account.

Time Position Orientation Groundspeed Altitude Reporting Facility
EDT Latitude Longitude Course Direction KTS MPH feet Rate Location/Type
Mon 07:08:38 PM 44.4594 -88.0725 100° East 139 160 2,800  Level Minneapolis Center
Mon 07:09:40 PM 44.4472 -88.0267 110° East 125 144 3,500 677 Climbing Minneapolis Center
Mon 07:10:42 PM 44.4361 -87.9858 111° Southeast 119 137 4,200 726 Climbing Minneapolis Center
Mon 07:11:44 PM 44.4242 -87.9397 110° East 124 143 5,000 823 Climbing Minneapolis Center
Mon 07:12:00 PM 44.3498 -87.7520 111° Southeast  Level Estimated
Mon 07:12:46 PM 44.4103 -87.8844 109° East 128 147 5,900  Level Minneapolis Center
Mon 07:13:00 PM 44.3414 -87.6827 100° East  Level FlightAware Approximate
Mon 07:13:48 PM 44.3972 -87.8344 110° East 133 153 6,600  Level Minneapolis Center
Mon 07:14:51 PM 44.3842 -87.7858 111° Southeast 134 154 7,300 672 Climbing Minneapolis Center
Mon 07:15:53 PM 44.3703 -87.7344 111° Southeast 138 159 8,000 629 Climbing Minneapolis Center
Mon 07:16:55 PM 44.3561 -87.6817 111° Southeast 144 166 8,600 714 Climbing Minneapolis Center
Mon 07:17:59 PM 44.3397 -87.6192 110° East 146 168 9,500 762 Climbing Minneapolis Center
Mon 07:19:01 PM 44.3253 -87.5669 111° Southeast 144 166 10,200 629 Climbing Minneapolis Center
Mon 07:20:03 PM 44.3117 -87.5150 110° East 142 163 10,800 629 Climbing Minneapolis Center
Mon 07:21:05 PM 44.2958 -87.4625 113° Southeast 145 167 11,500 629 Climbing Minneapolis Center
Mon 07:22:07 PM 44.2764 -87.4081 116° Southeast 154 177 12,100 629 Climbing Minneapolis Center
Mon 07:23:09 PM 44.2528 -87.3456 118° Southeast 157 181 12,800 629 Climbing Minneapolis Center
Mon 07:24:11 PM 44.2322 -87.2883 117° Southeast 163 188 13,400 532 Climbing Minneapolis Center
Mon 07:25:13 PM 44.2150 -87.2400 116° Southeast 165 190 13,900 613 Climbing Minneapolis Center
Mon 07:27:17 PM 44.1633 -87.1164 120° Southeast 176 203 15,300 645 Climbing Minneapolis Center
Mon 07:28:19 PM 44.1319 -87.0639 130° Southeast 178 205 15,900 629 Climbing Minneapolis Center
Mon 07:29:21 PM 44.0950 -86.9992 128° Southeast 178 205 16,600 629 Climbing Minneapolis Center
Mon 07:30:23 PM 44.0642 -86.9472 130° Southeast 177 204 17,200 581 Climbing Minneapolis Center
Mon 07:31:25 PM 44.0333 -86.8919 128° Southeast 179 206 17,800 484 Climbing Minneapolis Center
Mon 07:32:27 PM 44.0017 -86.8369 129° Southeast 182 209 18,200 435 Climbing Minneapolis Center
Mon 07:33:29 PM 43.9686 -86.7828 130° Southeast 183 211 18,700 339 Climbing Minneapolis Center
Mon 07:34:31 PM 43.9344 -86.7225 128° Southeast 194 223 18,900 145 Climbing Minneapolis Center
Mon 07:35:33 PM 43.8903 -86.6489 130° Southeast 206 237 19,000 48 Climbing Minneapolis Center
Mon 07:36:35 PM 43.8539 -86.5853 128° Southeast 210 242 19,000  Level Minneapolis Center
Mon 07:37:37 PM 43.8169 -86.5194 128° Southeast 216 249 19,000  Level Minneapolis Center
Mon 07:38:39 PM 43.7783 -86.4569 131° Southeast 214 246 19,000  Level Minneapolis Center
Mon 07:39:41 PM 43.7408 -86.3908 128° Southeast 218 251 19,000  Level Minneapolis Center
Mon 07:40:43 PM 43.7033 -86.3275 129° Southeast 214 246 19,000  Level Minneapolis Center
Mon 07:41:45 PM 43.6658 -86.2647 130° Southeast 213 245 19,000  Level Minneapolis Center
Mon 07:42:47 PM 43.6206 -86.1875 129° Southeast 215 247 19,000  Level Minneapolis Center
Mon 07:43:49 PM 43.5822 -86.1219 129° Southeast 219 252 19,000  Level Minneapolis Center
Mon 07:44:58 PM 43.5372 -86.0436 128° Southeast 219 252 19,000  Level Chicago Center
Mon 07:46:00 PM 43.5097 -85.9694 117° Southeast 218 251 19,000  Level Chicago Center
Mon 07:47:02 PM 43.4811 -85.8953 118° Southeast 219 252 19,000  Level Chicago Center
Mon 07:48:04 PM 43.4511 -85.8217 119° Southeast 219 252 19,000  Level Chicago Center
Mon 07:49:06 PM 43.4217 -85.7481 119° Southeast 220 253 19,000  Level Chicago Center
Mon 07:50:09 PM 43.3928 -85.6744 118° Southeast 218 251 19,000  Level Chicago Center
Mon 07:51:11 PM 43.3633 -85.6003 119° Southeast 220 253 19,000  Level Chicago Center
Mon 07:52:13 PM 43.3275 -85.5111 119° Southeast 220 253 19,000 -97 Level Chicago Center
Mon 07:53:15 PM 43.2981 -85.4364 118° Southeast 222 255 18,800 -435 Descending Chicago Center
Mon 07:54:17 PM 43.2647 -85.3569 120° Southeast 233 268 18,100 -581 Descending Chicago Center
Mon 07:55:19 PM 43.2317 -85.2728 118° Southeast 245 282 17,600 -581 Descending Chicago Center
Mon 07:56:21 PM 43.1978 -85.1897 119° Southeast 249 287 16,900 -726 Descending Chicago Center
Mon 07:57:23 PM 43.1647 -85.1067 119° Southeast 248 285 16,100 -823 Descending Chicago Center
Mon 07:58:25 PM 43.1250 -85.0100 119° Southeast 244 281 15,200 -823 Descending Chicago Center
Mon 07:59:27 PM 43.0922 -84.9297 119° Southeast 242 278 14,400 -703 Descending Chicago Center
Mon 08:00:33 PM 43.0597 -84.8503 119° Southeast 240 276 13,700 -656 Descending Chicago Center
Mon 08:01:35 PM 43.0283 -84.7717 119° Southeast 235 270 13,000 -726 Descending Chicago Center
Mon 08:02:37 PM 42.9922 -84.6797 118° Southeast 230 265 12,200 -774 Descending Chicago Center
Mon 08:03:39 PM 42.9600 -84.6053 121° Southeast 228 262 11,400 -726 Descending Chicago Center
Mon 08:04:41 PM 42.9283 -84.5308 120° Southeast 227 261 10,700 -672 Descending Chicago Center
Mon 08:05:44 PM 42.8964 -84.4550 120° Southeast 230 265 10,000 -672 Descending Chicago Center
Mon 08:06:46 PM 42.8664 -84.3808 119° Southeast 226 260 9,300 -435 Descending Chicago Center
Mon 08:07:48 PM 42.8372 -84.3100 119° Southeast 219 252 9,100 -259 Descending Chicago Center
Mon 08:08:42 PM 42.8044 -84.2425 123° Southeast 195 224 8,800 -626 Descending Cleveland Center
Mon 08:09:43 PM 42.7775 -84.1703 117° Southeast 220 253 7,900 -738 Descending Cleveland Center
Mon 08:10:44 PM 42.7442 -84.0975 122° Southeast 216 249 7,300 -393 Descending Cleveland Center
Mon 08:11:45 PM 42.7192 -84.0311 117° Southeast 194 223 7,100 -197 Descending Cleveland Center
Mon 08:12:46 PM 42.6961 -83.9678 116° Southeast 186 214 6,900 -488 Descending Cleveland Center
Mon 08:13:48 PM 42.6900 -83.8911 96° East 197 227 6,100 -878 Descending Cleveland Center
Mon 08:14:49 PM 42.7003 -83.8211 79° East 187 215 5,100 -934 Descending Cleveland Center
Mon 08:15:50 PM 42.7064 -83.7506 83° East 190 219 4,200 -891 Descending Cleveland Center
Mon 08:16:57 PM 42.7147 -83.6692 82° East 192 221 3,200 -750 Descending Cleveland Center
Mon 08:17:58 PM 42.7250 -83.5989 79° East 166 191 2,600 -295 Descending Cleveland Center
Mon 08:18:59 PM 42.7328 -83.5428 79° East 144 166 2,600 -52 Level Cleveland Center
Mon 08:19:54 PM 42.7464 -83.4981 67° East 138 159 2,500 -98 Descending Cleveland Center
Mon 08:21:01 PM 42.7525 -83.5014 338° Northwest 126 145 2,400 -148 Descending Cleveland Center
Mon 08:21:56 PM 42.7264 -83.4633 133° Southeast 142 163 2,200 -205 Descending Cleveland Center
Mon 08:22:58 PM 42.7003 -83.4253 133° Southeast 121 139 2,000 -233 Descending Cleveland Center
Mon 08:24:05 PM 42.6781 -83.3961 136° Southeast 108 124 1,700 -269 Descending Cleveland Center

Login

Don't have an account? Register now (free) for customized features, flight alerts, and more!